Time;durP1;ratioP1;P1;durP2;ratioP2;P2;SDS_P1;SDS_P2;PMS_P1;PMS_P2;Temp;Humidity;BMP_temperature;BMP_pressure;BME280_temperature;BME280_humidity;BME280_pressure;Samples;Min_cycle;Max_cycle;Signal;HPM_P1;HPM_P2
2022/10/17 00:00:22;;;;;;;17.13;5.03;;;11.60;99.90;;;;;;5108441;27;20043;-65
2022/10/17 00:02:48;;;;;;;12.00;5.75;;;11.60;99.90;;;;;;5135187;27;20035;-65
2022/10/17 00:05:14;;;;;;;16.58;6.18;;;11.60;99.90;;;;;;5115632;27;20047;-65
2022/10/17 00:07:40;;;;;;;11.15;4.78;;;11.60;99.90;;;;;;5115329;27;20045;-65
2022/10/17 00:10:07;;;;;;;16.48;5.90;;;11.50;99.90;;;;;;5133658;27;20114;-65
2022/10/17 00:12:33;;;;;;;10.18;5.72;;;11.60;99.90;;;;;;5115509;27;20061;-64
2022/10/17 00:14:59;;;;;;;17.98;5.95;;;11.50;99.90;;;;;;5115362;27;20046;-64
2022/10/17 00:17:25;;;;;;;19.88;6.30;;;11.50;99.90;;;;;;5098159;27;20039;-64
2022/10/17 00:19:51;;;;;;;13.40;6.70;;;11.50;99.90;;;;;;5095845;27;20035;-64
2022/10/17 00:22:16;;;;;;;11.32;5.93;;;11.60;99.90;;;;;;5114976;27;20046;-64
2022/10/17 00:24:42;;;;;;;15.05;6.18;;;11.60;99.90;;;;;;5114860;27;20043;-64
2022/10/17 00:27:08;;;;;;;11.05;5.45;;;11.70;99.90;;;;;;5133539;27;20089;-65
2022/10/17 00:29:34;;;;;;;16.02;5.93;;;11.70;99.90;;;;;;5114858;27;20075;-65
2022/10/17 00:31:59;;;;;;;16.85;5.95;;;11.80;99.90;;;;;;5114634;27;20059;-64
2022/10/17 00:34:29;;;;;;;12.60;5.10;;;11.90;99.90;;;;;;5132541;27;20525;-65
2022/10/17 00:36:55;;;;;;;11.48;5.70;;;11.90;99.90;;;;;;5114736;27;20285;-65
2022/10/17 00:39:21;;;;;;;14.13;6.32;;;12.00;99.90;;;;;;5133014;27;20070;-65
2022/10/17 00:41:47;;;;;;;9.82;5.13;;;12.10;99.90;;;;;;5133184;27;20042;-65
2022/10/17 00:44:31;;;;;;;9.40;5.13;;;12.20;99.90;;;;;;5114780;27;20468;-65
2022/10/17 00:46:57;;;;;;;9.82;5.22;;;12.30;99.90;;;;;;5114777;27;20100;-65
2022/10/17 00:49:26;;;;;;;16.00;4.97;;;12.30;99.90;;;;;;5130559;27;20049;-65
2022/10/17 00:51:56;;;;;;;12.60;5.55;;;12.40;99.90;;;;;;5114284;27;20042;-65
2022/10/17 00:54:30;;;;;;;11.50;5.38;;;12.40;99.90;;;;;;5114407;27;20043;-64
2022/10/17 00:56:56;;;;;;;10.27;5.55;;;12.40;99.90;;;;;;5114206;27;20043;-64
2022/10/17 00:59:23;;;;;;;9.80;5.65;;;12.50;99.90;;;;;;5088833;27;20517;-64
2022/10/17 01:02:12;;;;;;;10.38;5.40;;;12.50;99.90;;;;;;5114196;27;20039;-64
2022/10/17 01:04:41;;;;;;;7.25;5.00;;;12.50;99.90;;;;;;5132514;27;20043;-64
2022/10/17 01:07:09;;;;;;;11.40;5.72;;;12.60;99.90;;;;;;5114225;27;20031;-64
2022/10/17 01:09:35;;;;;;;9.45;5.45;;;12.60;99.90;;;;;;5114368;27;20129;-65
2022/10/17 01:12:04;;;;;;;11.48;5.68;;;12.60;99.90;;;;;;5114046;27;20043;-65
2022/10/17 01:14:57;;;;;;;12.30;5.32;;;12.50;99.90;;;;;;5113942;27;20054;-65
2022/10/17 01:17:35;;;;;;;12.40;6.78;;;12.60;99.90;;;;;;5132645;27;20047;-65
2022/10/17 01:20:12;;;;;;;14.75;5.65;;;12.60;99.90;;;;;;5111937;27;20436;-65
2022/10/17 01:23:00;;;;;;;13.77;6.72;;;12.60;99.90;;;;;;5114111;27;20042;-65
2022/10/17 01:25:48;;;;;;;12.95;5.90;;;12.60;99.90;;;;;;5113779;27;20054;-65
2022/10/17 01:28:21;;;;;;;11.48;5.80;;;12.60;99.90;;;;;;5114088;27;20051;-64
2022/10/17 01:31:22;;;;;;;10.82;6.28;;;12.50;99.90;;;;;;5115001;27;20103;-64
2022/10/17 01:33:55;;;;;;;11.75;5.43;;;12.50;99.90;;;;;;5128449;27;20058;-64
2022/10/17 01:36:35;;;;;;;11.00;6.63;;;12.50;99.90;;;;;;5115326;27;20046;-64
2022/10/17 01:39:11;;;;;;;9.55;5.88;;;12.50;99.90;;;;;;5133426;27;20039;-64
2022/10/17 01:41:51;;;;;;;9.13;6.07;;;12.50;99.90;;;;;;5133372;27;20224;-64
2022/10/17 01:44:23;;;;;;;9.82;6.15;;;12.50;99.90;;;;;;5133332;27;20463;-64
2022/10/17 01:46:51;;;;;;;11.57;6.10;;;12.50;99.90;;;;;;5114074;27;20081;-64
2022/10/17 01:49:23;;;;;;;12.93;7.10;;;12.50;99.90;;;;;;5112844;27;20376;-64
2022/10/17 01:51:55;;;;;;;14.00;6.95;;;12.50;99.90;;;;;;5097769;27;20031;-64
2022/10/17 01:54:34;;;;;;;15.75;6.38;;;12.50;99.90;;;;;;5114690;27;20072;-64
2022/10/17 01:57:04;;;;;;;11.20;6.80;;;12.50;99.90;;;;;;5113148;27;20078;-64
2022/10/17 01:59:39;;;;;;;14.10;7.38;;;12.50;99.90;;;;;;5113242;27;20491;-64
2022/10/17 02:02:06;;;;;;;11.82;7.45;;;12.50;99.90;;;;;;5113140;27;20047;-64
2022/10/17 02:04:33;;;;;;;13.60;7.75;;;12.50;99.90;;;;;;5131443;27;20072;-64
2022/10/17 02:07:06;;;;;;;12.65;7.75;;;12.50;99.90;;;;;;5113884;27;20056;-64
2022/10/17 02:09:32;;;;;;;14.35;7.65;;;12.60;99.90;;;;;;5114419;27;20043;-64
2022/10/17 02:12:19;;;;;;;14.75;8.02;;;12.60;99.90;;;;;;5114279;27;20054;-64
2022/10/17 02:15:03;;;;;;;17.38;8.52;;;12.60;99.90;;;;;;5114217;27;20047;-65
2022/10/17 02:17:58;;;;;;;12.95;9.02;;;12.60;99.90;;;;;;5114188;27;20043;-64
2022/10/17 02:20:39;;;;;;;13.60;7.90;;;12.60;99.90;;;;;;5110381;27;20039;-64
2022/10/17 02:23:29;;;;;;;16.23;8.57;;;12.60;99.90;;;;;;5112786;27;20486;-64
2022/10/17 02:26:07;;;;;;;12.80;9.82;;;12.60;99.90;;;;;;5095655;27;20038;-64
2022/10/17 02:29:22;;;;;;;12.60;9.25;;;12.70;99.90;;;;;;5131185;27;20099;-64
2022/10/17 02:32:01;;;;;;;14.20;9.32;;;12.70;99.90;;;;;;5071570;28;20052;-65
2022/10/17 02:34:41;;;;;;;15.60;11.20;;;12.80;99.90;;;;;;5123781;27;20050;-65
2022/10/17 02:37:11;;;;;;;12.95;10.60;;;12.80;99.90;;;;;;5112505;28;20070;-64
2022/10/17 02:39:39;;;;;;;18.00;10.90;;;12.80;99.90;;;;;;5095730;28;20049;-64
2022/10/17 02:42:09;;;;;;;15.23;10.55;;;12.90;99.90;;;;;;5112782;27;20035;-64
2022/10/17 02:44:38;;;;;;;18.77;10.90;;;12.90;99.90;;;;;;5130891;28;20039;-64
2022/10/17 02:47:24;;;;;;;15.23;11.48;;;12.90;99.90;;;;;;5112485;28;20047;-64
2022/10/17 02:49:52;;;;;;;14.68;10.93;;;12.90;99.90;;;;;;5110160;28;20043;-64
2022/10/17 02:52:39;;;;;;;18.60;11.13;;;12.90;99.90;;;;;;5130955;28;20050;-65
2022/10/17 02:55:15;;;;;;;17.60;11.48;;;13.00;99.90;;;;;;5130776;28;20046;-64
2022/10/17 02:57:51;;;;;;;16.70;11.90;;;13.00;99.90;;;;;;5096694;27;20039;-64
2022/10/17 03:00:18;;;;;;;15.02;11.98;;;13.00;99.90;;;;;;5116632;27;20039;-65
2022/10/17 03:02:47;;;;;;;17.92;12.82;;;13.00;99.90;;;;;;5099658;27;20632;-65
2022/10/17 03:05:24;;;;;;;17.25;12.43;;;13.00;99.90;;;;;;5116658;27;20035;-65
2022/10/17 03:07:51;;;;;;;18.27;12.68;;;13.00;99.90;;;;;;5116532;27;20081;-64
2022/10/17 03:10:18;;;;;;;19.10;12.07;;;13.00;99.90;;;;;;5116483;27;20039;-64
2022/10/17 03:12:44;;;;;;;18.42;12.38;;;13.00;99.90;;;;;;5116896;27;20035;-65
2022/10/17 03:15:10;;;;;;;16.23;12.80;;;13.00;99.90;;;;;;5116422;27;20045;-65
2022/10/17 03:17:36;;;;;;;18.20;12.88;;;13.10;99.90;;;;;;5099581;27;20039;-65
2022/10/17 03:20:03;;;;;;;22.33;13.93;;;13.10;99.90;;;;;;5113823;27;20463;-65
2022/10/17 03:22:29;;;;;;;16.85;12.80;;;13.10;99.90;;;;;;5134855;27;20094;-65
2022/10/17 03:24:55;;;;;;;19.50;12.98;;;13.10;99.90;;;;;;5099486;27;20490;-64
2022/10/17 03:27:21;;;;;;;18.98;13.27;;;13.20;99.90;;;;;;5116133;27;20483;-65
2022/10/17 03:29:47;;;;;;;20.55;13.68;;;13.20;99.90;;;;;;5099395;27;20070;-64
2022/10/17 03:32:12;;;;;;;18.73;13.25;;;13.20;99.90;;;;;;5099110;27;20055;-65
2022/10/17 03:34:38;;;;;;;16.50;12.93;;;13.30;99.90;;;;;;5134404;27;20043;-64
2022/10/17 03:37:04;;;;;;;15.48;12.43;;;13.40;99.90;;;;;;5115896;27;20043;-65
2022/10/17 03:39:30;;;;;;;17.98;13.48;;;13.40;99.90;;;;;;5134546;27;20046;-64
2022/10/17 03:41:55;;;;;;;24.35;14.50;;;13.40;99.90;;;;;;5134281;27;20041;-65
2022/10/17 03:44:21;;;;;;;17.70;12.73;;;13.40;99.90;;;;;;5134666;27;20039;-64
2022/10/17 03:46:47;;;;;;;22.55;13.65;;;13.50;99.90;;;;;;5116099;27;20046;-64
2022/10/17 03:49:12;;;;;;;19.55;12.88;;;13.60;99.90;;;;;;5113453;27;20075;-65
2022/10/17 03:51:39;;;;;;;20.02;13.85;;;13.60;99.90;;;;;;5115671;27;20479;-64
2022/10/17 03:54:05;;;;;;;19.42;13.80;;;13.60;99.90;;;;;;5115655;27;20043;-64
2022/10/17 03:56:31;;;;;;;19.42;13.85;;;13.60;99.90;;;;;;5116005;27;20207;-65
2022/10/17 03:58:57;;;;;;;17.95;13.30;;;13.70;99.90;;;;;;5134069;27;20485;-65
2022/10/17 04:01:23;;;;;;;24.73;15.30;;;13.60;99.90;;;;;;5107269;27;20131;-65
2022/10/17 04:03:55;;;;;;;20.38;14.10;;;13.70;99.90;;;;;;5133767;27;20035;-64
2022/10/17 04:06:21;;;;;;;18.58;14.07;;;13.80;99.90;;;;;;5115557;27;20031;-64
2022/10/17 04:08:47;;;;;;;23.33;15.05;;;13.80;99.90;;;;;;5114544;28;20516;-64
2022/10/17 04:11:17;;;;;;;19.90;14.07;;;13.80;99.90;;;;;;5133442;27;20143;-64
2022/10/17 04:13:43;;;;;;;21.27;14.50;;;13.90;99.90;;;;;;5115297;27;20047;-65
2022/10/17 04:16:15;;;;;;;23.33;14.70;;;14.00;99.90;;;;;;5115058;27;20042;-65
2022/10/17 04:18:42;;;;;;;22.88;15.20;;;14.00;99.90;;;;;;5115215;27;20047;-63
2022/10/17 04:21:09;;;;;;;20.92;14.82;;;14.10;99.90;;;;;;5112942;27;20500;-64
2022/10/17 04:23:35;;;;;;;19.25;14.50;;;14.20;99.90;;;;;;5115101;27;20047;-64
2022/10/17 04:26:02;;;;;;;20.10;13.85;;;14.20;99.90;;;;;;5114972;27;20131;-64
2022/10/17 04:28:28;;;;;;;17.92;13.93;;;14.30;99.90;;;;;;5133486;27;20051;-64
2022/10/17 04:31:02;;;;;;;17.60;13.07;;;14.30;99.90;;;;;;5114605;27;20130;-64
2022/10/17 04:33:28;;;;;;;18.00;12.88;;;14.40;99.90;;;;;;5115068;27;20061;-65
2022/10/17 04:36:14;;;;;;;20.05;12.65;;;14.50;99.90;;;;;;5097858;27;20487;-64
2022/10/17 04:38:40;;;;;;;17.88;12.68;;;14.50;99.90;;;;;;5114750;27;20039;-67
2022/10/17 04:41:10;;;;;;;17.58;13.65;;;14.60;99.90;;;;;;5114732;27;20039;-65
2022/10/17 04:43:37;;;;;;;17.10;12.13;;;14.60;99.90;;;;;;5114741;27;20047;-65
2022/10/17 04:46:08;;;;;;;18.95;12.80;;;14.70;99.90;;;;;;5114632;27;20359;-65
2022/10/17 04:48:34;;;;;;;16.98;11.80;;;14.70;99.90;;;;;;5097492;27;20035;-65
2022/10/17 04:51:03;;;;;;;14.20;11.98;;;14.70;99.90;;;;;;5112091;27;20043;-64
2022/10/17 04:53:34;;;;;;;17.25;12.77;;;14.80;99.90;;;;;;5114727;27;20392;-65
2022/10/17 04:56:00;;;;;;;18.02;13.50;;;14.80;99.90;;;;;;5114361;27;20270;-65
2022/10/17 04:58:28;;;;;;;17.60;12.75;;;14.80;99.90;;;;;;5132987;27;20074;-67
2022/10/17 05:00:54;;;;;;;18.50;13.35;;;14.80;99.90;;;;;;5097255;27;20031;-64
2022/10/17 05:03:20;;;;;;;16.48;12.40;;;14.80;99.90;;;;;;5114707;27;20034;-64
2022/10/17 05:05:46;;;;;;;16.35;12.98;;;14.80;99.90;;;;;;5132587;27;20046;-65
2022/10/17 05:08:12;;;;;;;18.83;14.07;;;14.80;99.90;;;;;;5114275;27;20052;-64
2022/10/17 05:10:44;;;;;;;16.48;13.48;;;14.80;99.90;;;;;;5132418;27;20093;-62
2022/10/17 05:13:11;;;;;;;20.80;13.13;;;14.80;99.90;;;;;;5097325;27;20175;-65
2022/10/17 05:15:37;;;;;;;18.30;13.90;;;14.80;99.90;;;;;;5114028;27;20039;-63
2022/10/17 05:18:05;;;;;;;15.18;11.95;;;14.70;99.90;;;;;;5132414;27;20399;-64
2022/10/17 05:20:31;;;;;;;16.23;12.18;;;14.70;99.90;;;;;;5129705;27;20046;-64
2022/10/17 05:23:00;;;;;;;22.15;14.55;;;14.70;99.90;;;;;;5113783;27;20094;-64
2022/10/17 05:25:26;;;;;;;17.55;12.27;;;14.70;99.90;;;;;;5097200;27;20062;-64
2022/10/17 05:27:52;;;;;;;18.48;13.00;;;14.70;99.90;;;;;;5114030;27;20395;-63
2022/10/17 05:30:18;;;;;;;19.02;13.82;;;14.60;99.90;;;;;;5113547;27;20519;-64
2022/10/17 05:32:44;;;;;;;19.02;14.57;;;14.70;99.90;;;;;;5132213;27;20071;-65
2022/10/17 05:35:10;;;;;;;16.60;13.40;;;14.70;99.90;;;;;;5113652;27;20046;-65
2022/10/17 05:37:36;;;;;;;15.85;12.70;;;14.70;99.90;;;;;;5113664;27;20124;-65
2022/10/17 05:40:02;;;;;;;17.35;12.70;;;14.70;99.90;;;;;;5132102;27;20398;-64
2022/10/17 05:42:28;;;;;;;18.45;12.80;;;14.70;99.90;;;;;;5132025;27;20039;-64
2022/10/17 05:44:54;;;;;;;17.38;11.30;;;14.80;99.90;;;;;;5096877;27;20046;-63
2022/10/17 05:47:19;;;;;;;15.70;12.05;;;14.80;99.90;;;;;;5131919;27;20447;-64
2022/10/17 05:49:45;;;;;;;18.98;12.23;;;14.90;99.90;;;;;;5111123;27;20047;-65
2022/10/17 05:52:11;;;;;;;14.80;10.77;;;15.00;99.90;;;;;;5113397;27;20041;-64
2022/10/17 05:54:37;;;;;;;18.95;10.93;;;15.00;99.90;;;;;;5131641;27;20114;-66
2022/10/17 05:57:02;;;;;;;13.52;10.50;;;15.10;99.90;;;;;;5131779;27;20043;-67
2022/10/17 05:59:28;;;;;;;17.55;11.10;;;15.10;99.90;;;;;;5113237;27;20039;-65
2022/10/17 06:01:54;;;;;;;15.90;10.57;;;15.20;99.90;;;;;;5131747;27;20038;-65
2022/10/17 06:04:20;;;;;;;14.70;9.85;;;15.20;99.90;;;;;;5131490;27;20118;-64
2022/10/17 06:06:46;;;;;;;14.13;10.73;;;15.30;99.90;;;;;;5113149;27;20046;-65
2022/10/17 06:09:11;;;;;;;13.15;10.48;;;15.30;99.90;;;;;;5096109;27;20103;-66
2022/10/17 06:11:37;;;;;;;12.40;9.25;;;15.40;99.90;;;;;;5131531;27;20035;-66
2022/10/17 06:14:03;;;;;;;13.93;8.73;;;15.40;99.90;;;;;;5131356;27;20483;-64
2022/10/17 06:16:29;;;;;;;13.85;9.48;;;15.50;99.90;;;;;;5095970;27;20043;-66
2022/10/17 06:18:55;;;;;;;15.43;10.98;;;15.50;99.90;;;;;;5112836;27;20047;-66
2022/10/17 06:21:23;;;;;;;15.05;10.00;;;15.50;99.90;;;;;;5093567;27;20497;-65
2022/10/17 06:23:49;;;;;;;12.65;9.93;;;15.50;99.90;;;;;;5112777;27;20044;-64
2022/10/17 06:26:15;;;;;;;16.92;10.52;;;15.50;99.90;;;;;;5113042;27;20032;-64
2022/10/17 06:28:41;;;;;;;14.30;9.55;;;15.50;99.90;;;;;;5112742;27;20047;-66
2022/10/17 06:31:10;;;;;;;11.25;9.07;;;15.60;99.90;;;;;;5112617;27;20059;-64
2022/10/17 06:33:36;;;;;;;13.82;8.85;;;15.60;99.90;;;;;;5130536;27;20043;-65
2022/10/17 06:36:03;;;;;;;13.55;9.32;;;15.60;99.90;;;;;;5112850;28;20486;-65
2022/10/17 06:38:29;;;;;;;13.50;8.35;;;15.70;99.90;;;;;;5112615;28;20048;-65
2022/10/17 06:41:07;;;;;;;13.15;9.40;;;15.70;99.90;;;;;;5112782;27;20495;-64
2022/10/17 06:43:34;;;;;;;12.13;9.48;;;15.70;99.90;;;;;;5131059;27;20078;-66
2022/10/17 06:46:00;;;;;;;13.60;9.30;;;15.70;99.90;;;;;;5112809;28;20133;-66
2022/10/17 06:48:25;;;;;;;13.43;9.05;;;15.80;99.90;;;;;;5130980;28;20070;-66
2022/10/17 06:50:51;;;;;;;14.13;8.52;;;15.70;99.90;;;;;;5128715;28;20086;-66
2022/10/17 06:53:17;;;;;;;11.60;9.05;;;15.80;99.90;;;;;;5131119;28;20039;-64
2022/10/17 06:55:43;;;;;;;15.07;8.68;;;15.80;99.90;;;;;;5112439;28;20078;-66
2022/10/17 06:58:08;;;;;;;12.48;8.85;;;15.80;99.90;;;;;;5129539;27;20077;-66
2022/10/17 07:00:34;;;;;;;12.82;9.57;;;15.80;99.90;;;;;;5111411;28;20042;-63
2022/10/17 07:03:00;;;;;;;11.73;8.32;;;15.80;99.90;;;;;;5113425;28;20042;-65
2022/10/17 07:05:25;;;;;;;14.07;8.80;;;15.80;99.90;;;;;;5096026;28;20039;-65
2022/10/17 07:07:51;;;;;;;12.48;9.07;;;15.80;99.90;;;;;;5131979;28;20122;-66
2022/10/17 07:10:17;;;;;;;12.55;8.45;;;15.80;99.90;;;;;;5132033;28;20043;-64
2022/10/17 07:12:44;;;;;;;11.38;8.50;;;15.80;99.90;;;;;;5132025;28;20103;-66
2022/10/17 07:15:10;;;;;;;17.35;9.25;;;15.90;99.90;;;;;;5113366;28;20122;-66
2022/10/17 07:17:36;;;;;;;11.27;8.20;;;15.90;99.90;;;;;;5113392;28;20498;-64
2022/10/17 07:20:02;;;;;;;12.30;8.65;;;15.90;99.90;;;;;;5111033;28;20039;-65
2022/10/17 07:22:28;;;;;;;16.33;9.88;;;16.00;99.90;;;;;;5113262;28;20061;-66
2022/10/17 07:24:54;;;;;;;12.00;8.43;;;16.00;99.90;;;;;;5112288;28;20035;-65
2022/10/17 07:27:20;;;;;;;12.85;8.13;;;16.00;99.90;;;;;;5130483;28;20043;-65
2022/10/17 07:29:46;;;;;;;10.90;8.63;;;16.00;99.90;;;;;;5112207;28;20043;-65
2022/10/17 07:32:11;;;;;;;15.48;9.50;;;16.00;99.90;;;;;;5130215;28;20121;-65
2022/10/17 07:34:37;;;;;;;12.57;8.50;;;16.00;99.90;;;;;;5095050;28;20043;-65
2022/10/17 07:37:08;;;;;;;13.40;8.57;;;16.00;99.90;;;;;;5112298;28;20032;-65
2022/10/17 07:39:34;;;;;;;10.90;8.38;;;16.10;99.90;;;;;;5056623;28;20093;-66
2022/10/17 07:42:00;;;;;;;11.20;7.65;;;16.10;99.90;;;;;;5067734;28;20450;-66
2022/10/17 07:44:26;;;;;;;11.02;8.00;;;16.20;99.90;;;;;;5095488;28;20040;-66
2022/10/17 07:46:52;;;;;;;12.30;8.95;;;16.30;99.90;;;;;;5097059;28;20035;-66
2022/10/17 07:49:17;;;;;;;12.52;9.00;;;16.30;99.90;;;;;;5112677;28;20478;-66
2022/10/17 07:51:43;;;;;;;13.02;8.73;;;16.40;99.90;;;;;;5097049;28;20092;-65
2022/10/17 07:54:09;;;;;;;16.75;8.98;;;16.40;99.90;;;;;;5115231;28;20040;-65
2022/10/17 07:56:35;;;;;;;9.90;8.63;;;16.40;99.90;;;;;;5096896;28;20097;-66
2022/10/17 07:59:01;;;;;;;13.88;9.07;;;16.40;99.90;;;;;;5114847;28;20055;-66
2022/10/17 08:01:27;;;;;;;12.25;7.82;;;16.40;99.90;;;;;;5096571;28;20066;-66
2022/10/17 08:03:52;;;;;;;9.43;7.95;;;16.40;99.90;;;;;;5096521;28;20086;-65
2022/10/17 08:06:18;;;;;;;11.45;8.73;;;16.40;99.90;;;;;;5079678;28;20071;-66
2022/10/17 08:08:44;;;;;;;10.73;8.45;;;16.40;99.90;;;;;;5096474;28;20044;-66
2022/10/17 08:11:11;;;;;;;12.23;8.57;;;16.40;99.90;;;;;;5096558;28;20050;-66
2022/10/17 08:13:39;;;;;;;10.48;7.55;;;16.40;99.90;;;;;;5114691;28;20538;-67
2022/10/17 08:16:08;;;;;;;9.75;8.13;;;16.50;99.90;;;;;;5087284;28;20102;-67
2022/10/17 08:18:35;;;;;;;11.38;8.80;;;16.50;99.90;;;;;;5114380;28;20039;-66
2022/10/17 08:21:05;;;;;;;13.57;8.60;;;16.50;99.90;;;;;;5112269;28;20028;-67
2022/10/17 08:23:30;;;;;;;16.35;8.55;;;16.50;99.90;;;;;;5096292;28;20035;-66
2022/10/17 08:26:01;;;;;;;12.27;8.13;;;16.50;99.90;;;;;;5096071;28;20042;-66
2022/10/17 08:28:27;;;;;;;11.40;8.55;;;16.60;99.90;;;;;;5114338;28;20616;-67
2022/10/17 08:31:07;;;;;;;8.88;7.50;;;16.60;99.90;;;;;;5101009;28;20534;-64
2022/10/17 08:33:34;;;;;;;11.98;8.60;;;16.60;99.90;;;;;;5113956;28;20047;-67
2022/10/17 08:36:01;;;;;;;12.23;8.40;;;16.60;99.90;;;;;;5116951;27;20047;-67
2022/10/17 08:38:31;;;;;;;11.73;9.05;;;16.60;99.90;;;;;;5135208;27;20043;-67
2022/10/17 08:41:01;;;;;;;10.15;7.97;;;16.60;99.90;;;;;;5117008;27;20039;-66
2022/10/17 08:43:31;;;;;;;12.10;8.50;;;16.60;99.90;;;;;;5116831;27;20507;-67
2022/10/17 08:46:01;;;;;;;10.52;8.32;;;16.60;99.90;;;;;;5117342;27;20365;-68
2022/10/17 08:48:31;;;;;;;12.18;8.32;;;16.60;99.90;;;;;;5116564;27;20050;-67
2022/10/17 08:51:12;;;;;;;10.65;8.32;;;16.60;99.90;;;;;;5113740;27;20043;-67
2022/10/17 08:54:19;;;;;;;12.05;8.60;;;16.60;99.90;;;;;;5116298;27;20050;-67
2022/10/17 08:56:49;;;;;;;11.27;8.63;;;16.70;99.90;;;;;;5113691;27;20521;-67
2022/10/17 08:59:30;;;;;;;13.02;8.55;;;16.60;99.90;;;;;;5115887;27;20043;-67
2022/10/17 09:02:07;;;;;;;13.73;9.00;;;16.70;99.90;;;;;;5134243;27;20049;-67
2022/10/17 09:04:48;;;;;;;13.23;8.07;;;16.70;99.90;;;;;;5116122;27;20039;-67
2022/10/17 09:07:43;;;;;;;13.63;8.48;;;16.70;99.90;;;;;;5134183;27;20035;-66
2022/10/17 09:10:43;;;;;;;13.65;8.75;;;16.70;99.90;;;;;;5134039;27;20039;-66
2022/10/17 09:13:30;;;;;;;13.75;9.02;;;16.70;99.90;;;;;;5128108;27;20115;-67
2022/10/17 09:16:48;;;;;;;15.93;9.55;;;16.70;99.90;;;;;;5134230;27;20073;-66
2022/10/17 09:19:23;;;;;;;21.20;10.10;;;16.70;99.90;;;;;;5077846;27;20051;-66
2022/10/17 09:21:52;;;;;;;18.27;10.27;;;16.70;99.90;;;;;;5115530;27;20043;-65
2022/10/17 09:24:40;;;;;;;17.05;10.40;;;16.70;99.90;;;;;;5115428;27;20047;-65
2022/10/17 09:27:35;;;;;;;16.13;9.70;;;16.70;99.90;;;;;;5113503;27;20066;-64
2022/10/17 09:30:37;;;;;;;14.70;10.35;;;16.70;99.90;;;;;;5109631;27;20292;-64
2022/10/17 09:33:36;;;;;;;18.42;11.07;;;16.70;99.90;;;;;;5081715;27;20043;-65
2022/10/17 09:36:19;;;;;;;25.95;10.23;;;16.70;99.90;;;;;;5094597;27;20096;-66
2022/10/17 09:38:51;;;;;;;21.35;10.98;;;16.60;99.90;;;;;;5098071;27;20328;-65
2022/10/17 09:41:29;;;;;;;19.60;11.30;;;16.60;99.90;;;;;;5133533;27;20039;-66
2022/10/17 09:43:58;;;;;;;18.63;12.13;;;16.60;99.90;;;;;;5097915;27;20035;-66
2022/10/17 09:46:37;;;;;;;20.27;11.43;;;16.60;99.90;;;;;;5108624;27;20479;-66
2022/10/17 09:49:10;;;;;;;24.45;11.35;;;16.60;99.90;;;;;;5108275;27;20115;-67
2022/10/17 09:51:37;;;;;;;18.40;11.80;;;16.60;99.90;;;;;;5113012;28;20035;-67
2022/10/17 09:54:10;;;;;;;18.15;12.38;;;16.60;99.90;;;;;;5114091;27;20035;-66
2022/10/17 09:56:57;;;;;;;17.85;11.48;;;16.50;99.90;;;;;;5127479;27;20443;-66
2022/10/17 09:59:38;;;;;;;17.88;11.00;;;16.50;99.90;;;;;;5125965;27;20050;-66
2022/10/17 10:02:11;;;;;;;25.95;13.75;;;16.50;99.90;;;;;;5132972;27;20043;-66
2022/10/17 10:04:52;;;;;;;16.30;11.00;;;16.50;99.90;;;;;;5096103;27;20049;-66
2022/10/17 10:07:19;;;;;;;21.83;13.20;;;16.50;99.90;;;;;;5093310;28;20116;-66
2022/10/17 10:09:47;;;;;;;16.20;11.32;;;16.60;99.90;;;;;;5111793;27;20110;-66
2022/10/17 10:12:23;;;;;;;21.92;12.73;;;16.60;99.90;;;;;;5114999;27;20035;-66
2022/10/17 10:14:53;;;;;;;18.10;12.68;;;16.60;99.90;;;;;;5114415;27;20061;-66
2022/10/17 10:17:25;;;;;;;;;;;16.60;99.90;;;;;;5080738;27;20058;-66
2022/10/17 10:19:53;;;;;;;26.33;14.80;;;16.70;99.90;;;;;;5124721;27;20324;-66
2022/10/17 10:22:24;;;;;;;32.33;18.05;;;16.70;99.90;;;;;;5109874;28;20076;-66
2022/10/17 10:25:15;;;;;;;20.50;14.40;;;16.80;99.90;;;;;;5112740;28;20426;-66
2022/10/17 10:27:48;;;;;;;19.17;11.55;;;16.80;99.90;;;;;;5094110;28;20078;-66
2022/10/17 10:30:29;;;;;;;18.45;11.90;;;16.80;99.90;;;;;;5095126;27;20091;-66
2022/10/17 10:32:59;;;;;;;19.38;12.45;;;16.80;99.90;;;;;;5096272;27;20082;-67
2022/10/17 10:35:34;;;;;;;20.90;11.15;;;16.80;99.90;;;;;;5131489;27;20043;-67
2022/10/17 10:38:09;;;;;;;15.45;10.93;;;16.80;99.90;;;;;;5113724;27;20497;-67
2022/10/17 10:40:56;;;;;;;14.18;10.27;;;16.70;99.90;;;;;;5133636;27;20043;-67
2022/10/17 10:43:38;;;;;;;17.25;11.50;;;16.80;99.90;;;;;;5118857;27;20367;-67
2022/10/17 10:46:28;;;;;;;17.15;11.80;;;16.70;99.90;;;;;;5134097;27;20553;-67
2022/10/17 10:49:00;;;;;;;18.02;11.27;;;16.80;99.90;;;;;;5134701;27;20039;-67
2022/10/17 10:51:39;;;;;;;16.10;10.10;;;16.80;99.90;;;;;;5132852;27;20038;-67
2022/10/17 10:54:19;;;;;;;16.77;11.30;;;16.80;99.90;;;;;;5134365;27;20065;-67
2022/10/17 10:56:59;;;;;;;19.55;11.57;;;16.80;99.90;;;;;;5153052;27;20113;-67
2022/10/17 10:59:28;;;;;;;17.88;11.35;;;16.80;99.90;;;;;;5147434;27;20043;-66
2022/10/17 11:02:15;;;;;;;15.18;10.48;;;16.80;99.90;;;;;;5152882;27;20051;-66
2022/10/17 11:05:06;;;;;;;16.65;11.20;;;16.80;99.90;;;;;;5131929;27;20482;-66
2022/10/17 11:08:03;;;;;;;15.43;10.85;;;16.80;99.90;;;;;;5152923;27;20035;-66
2022/10/17 11:10:55;;;;;;;18.85;11.75;;;16.80;99.90;;;;;;5134082;27;20039;-66
2022/10/17 11:13:36;;;;;;;18.52;10.73;;;16.90;99.90;;;;;;5152708;27;20117;-66
2022/10/17 11:16:38;;;;;;;19.08;10.50;;;16.90;99.90;;;;;;5152843;27;20047;-66
2022/10/17 11:19:15;;;;;;;16.75;10.82;;;17.00;99.90;;;;;;5118315;27;20121;-66
2022/10/17 11:22:00;;;;;;;19.33;10.30;;;17.00;99.90;;;;;;5121316;27;20039;-66
2022/10/17 11:24:50;;;;;;;20.60;10.10;;;17.00;99.90;;;;;;5137830;27;20497;-66
2022/10/17 11:27:18;;;;;;;15.25;9.45;;;17.00;99.90;;;;;;5120675;27;20406;-66
2022/10/17 11:29:45;;;;;;;15.25;9.45;;;17.00;99.90;;;;;;5130776;27;20486;-66
2022/10/17 11:32:31;;;;;;;25.52;11.50;;;17.00;99.90;;;;;;5134392;27;20085;-65
2022/10/17 11:35:06;;;;;;;20.88;9.65;;;17.00;99.90;;;;;;5134103;27;20558;-65
2022/10/17 11:37:44;;;;;;;16.23;9.68;;;17.00;99.90;;;;;;5117755;27;20046;-66
2022/10/17 11:40:26;;;;;;;13.80;8.43;;;17.00;99.90;;;;;;5137435;27;20042;-65
2022/10/17 11:43:12;;;;;;;15.27;7.90;;;17.00;99.90;;;;;;5130227;27;20042;-65
2022/10/17 11:45:59;;;;;;;11.63;6.25;;;17.00;99.90;;;;;;5126029;27;20119;-66
2022/10/17 11:48:28;;;;;;;12.15;7.03;;;16.90;99.90;;;;;;5128699;27;20043;-66
2022/10/17 11:51:11;;;;;;;21.37;7.70;;;16.90;99.90;;;;;;5132215;27;20035;-66
2022/10/17 11:53:59;;;;;;;12.40;7.53;;;17.00;99.90;;;;;;5134668;27;20281;-66
2022/10/17 11:56:43;;;;;;;10.18;7.40;;;17.10;99.90;;;;;;5135904;27;20051;-67
2022/10/17 11:59:32;;;;;;;11.30;6.75;;;17.20;99.90;;;;;;5117529;27;20058;-65
2022/10/17 12:02:08;;;;;;;11.40;5.90;;;17.30;99.90;;;;;;5134855;27;20403;-65
2022/10/17 12:04:53;;;;;;;8.35;5.45;;;17.30;99.90;;;;;;5132135;27;20076;-66
2022/10/17 12:08:07;;;;;;;8.43;4.63;;;17.30;99.90;;;;;;5130079;27;20051;-65
2022/10/17 12:10:43;;;;;;;14.00;5.50;;;17.30;99.90;;;;;;5035756;28;20102;-65
2022/10/17 12:13:35;;;;;;;5.22;4.40;;;17.20;99.90;;;;;;5038334;28;20797;-65
2022/10/17 12:16:20;;;;;;;11.40;4.93;;;17.20;99.90;;;;;;5108165;27;20491;-65
2022/10/17 12:19:01;;;;;;;5.75;4.38;;;17.20;99.90;;;;;;5131623;27;20447;-65
2022/10/17 12:22:10;;;;;;;6.85;3.60;;;17.10;99.90;;;;;;5132871;27;20058;-65
2022/10/17 12:24:39;;;;;;;5.75;3.88;;;17.00;99.90;;;;;;5135898;27;20031;-65
2022/10/17 12:27:35;;;;;;;5.75;3.50;;;17.00;99.90;;;;;;5117685;27;20043;-65
2022/10/17 12:30:16;;;;;;;4.78;3.28;;;16.90;99.90;;;;;;5116437;27;20076;-65
2022/10/17 12:32:58;;;;;;;10.88;3.95;;;16.80;99.90;;;;;;5125487;27;20045;-64
2022/10/17 12:35:30;;;;;;;8.15;4.65;;;16.70;99.90;;;;;;5116829;27;20538;-65
2022/10/17 12:38:19;;;;;;;7.47;3.95;;;16.60;99.90;;;;;;5101220;27;20483;-65
2022/10/17 12:40:48;;;;;;;16.42;5.45;;;16.60;99.90;;;;;;5095455;27;20050;-65
2022/10/17 12:43:17;;;;;;;18.02;5.35;;;16.50;99.90;;;;;;5097517;28;20119;-65
2022/10/17 12:45:57;;;;;;;;;;;16.50;99.90;;;;;;5115385;28;20036;-65
2022/10/17 12:48:41;;;;;;;16.60;5.65;;;16.50;99.90;;;;;;5082217;27;20336;-64
2022/10/17 12:51:12;;;;;;;7.82;5.40;;;16.40;99.90;;;;;;5106050;27;20073;-65
2022/10/17 12:53:51;;;;;;;10.25;5.70;;;16.40;99.90;;;;;;5135473;27;20436;-65
2022/10/17 12:56:33;;;;;;;8.90;5.45;;;16.40;99.90;;;;;;5136219;27;20039;-66
2022/10/17 12:58:59;;;;;;;16.10;7.07;;;16.30;99.90;;;;;;5109202;27;20075;-66
2022/10/17 13:01:32;;;;;;;10.10;4.93;;;16.30;99.90;;;;;;5135216;27;20605;-66